Overseas Milos — V7WR8 — position and weather

sailwx.info

Track history (hours):
 
Tides and Currents Weather Stations Pressure Air Temp Water Temp Dewpoint Dewpoint Depression Visibility Wind Speed Wind Dir Waves Ship Positions

Overseas Milos

Last reported at 2015-Jul-29 21:33 UTC. Time now 2015-Aug-01 07:52 UTC.
Position N 36°49' W 001°14'.

Length 183 m; draft 8.5 m.

Type: Tanker. MMSI: 538004376.

Date/timePositionNaut miles runAvg speedWind from/ knotsBaromVisibWave heightAir tempDewpointWater temp
2015-Jul-29 21:33N 36°49' W 001°14'1412.0
2015-Jul-29 20:22N 36°56' W 000°58'1012.2
2015-Jul-29 19:34N 37°00' W 000°47'1212.4
2015-Jul-29 18:34N 37°06' W 000°34'1312.6
2015-Jul-29 17:33N 37°12' W 000°20'1312.8
2015-Jul-29 16:33N 37°19' W 000°06'1312.9
2015-Jul-29 15:34N 37°25' E 000°08'1312.9
2015-Jul-29 14:33N 37°30' E 000°23'1313.0
2015-Jul-29 13:33N 37°36' E 000°38'1312.7
2015-Jul-29 12:32N 37°43' E 000°52'1612.4
2015-Jul-29 11:16N 37°50' E 001°10'912.2
2015-Jul-29 10:32N 37°54' E 001°20'1412.2
2015-Jul-29 09:23N 38°01' E 001°35'1112.3
2015-Jul-29 08:32N 38°06' E 001°47'1412.3
2015-Jul-29 07:23N 38°12' E 002°03'1312.1
2015-Jul-29 06:19N 38°18' E 002°18'1012.4
2015-Jul-29 05:32N 38°23' E 002°29'1312.1
2015-Jul-29 04:28N 38°28' E 002°43'2412.4
2015-Jul-29 02:31N 38°40' E 003°11'250 6.9
2015-Jul-27 14:29N 38°27' E 008°29'7 7.3
2015-Jul-27 13:30N 38°33' E 008°25'26813.2
2015-Jul-26 17:08N 40°46' E 003°23'1211.8
2015-Jul-26 16:07N 40°52' E 003°08'813.3
2015-Jul-26 15:31N 40°56' E 002°59'2613.0
2015-Jul-26 13:33N 41°08' E 002°29'  
2015-Jul-23 19:26N 41°20' E 002°09'3 0.9
2015-Jul-23 16:33N 41°19' E 002°12'0 0.0
2015-Jul-23 15:15N 41°19' E 002°12'17 2.9
2015-Jul-23 09:21N 41°03' E 002°04'1013.0
2015-Jul-23 08:33N 40°54' E 001°57'1313.0
2015-Jul-23 07:33N 40°43' E 001°48'1414.2
2015-Jul-23 06:33N 40°31' E 001°39'1414.2
2015-Jul-23 05:33N 40°18' E 001°31'1313.3
2015-Jul-23 04:33N 40°06' E 001°23'1313.3
2015-Jul-23 03:33N 39°54' E 001°15'1313.3
2015-Jul-23 02:33N 39°42' E 001°07'2913.1
2015-Jul-23 00:21N 39°16' E 000°53'1012.9
2015-Jul-22 23:33N 39°08' E 000°45'1613.1
2015-Jul-22 22:19N 38°53' E 000°35'1613.6
2015-Jul-22 21:07N 38°39' E 000°25'813.3
2015-Jul-22 20:31N 38°32' E 000°20'1713.2
2015-Jul-22 19:15N 38°18' E 000°08'1113.5
2015-Jul-22 18:26N 38°09' W 000°00'1213.6
2015-Jul-22 17:33N 37°59' W 000°09'1713.6
2015-Jul-22 16:20N 37°45' W 000°21'1013.5
2015-Jul-22 15:33N 37°37' W 000°28'1313.4
2015-Jul-22 14:33N 37°27' W 000°40'1313.2
2015-Jul-22 13:33N 37°18' W 000°52'1413.5
2015-Jul-22 12:33N 37°09' W 001°05'4710.6
2015-Jul-22 08:07N 36°38' W 001°49'812.3
2015-Jul-22 07:30N 36°33' W 001°56'1412.5
2015-Jul-22 06:22N 36°24' W 002°09'1112.5
2015-Jul-22 05:31N 36°21' W 002°22'1312.7
2015-Jul-22 04:31N 36°20' W 002°38'  
Track history (hours):
 
Tides and Currents Weather Stations Pressure Air Temp Water Temp Dewpoint Dewpoint Depression Visibility Wind Speed Wind Dir Waves Ship Positions

Overseas Milos

Last reported at 2015-Jul-29 21:33 UTC. Time now 2015-Aug-01 07:52 UTC.
Position N 36°49' W 001°14'.

Length 183 m; draft 8.5 m.

Type: Tanker. MMSI: 538004376.

Date/timePositionNaut miles runAvg speedWind from/ knotsBaromVisibWave heightAir tempDewpointWater temp
2015-Jul-29 21:33N 36°49' W 001°14'1412.0
2015-Jul-29 20:22N 36°56' W 000°58'1012.2
2015-Jul-29 19:34N 37°00' W 000°47'1212.4
2015-Jul-29 18:34N 37°06' W 000°34'1312.6
2015-Jul-29 17:33N 37°12' W 000°20'1312.8
2015-Jul-29 16:33N 37°19' W 000°06'1312.9
2015-Jul-29 15:34N 37°25' E 000°08'1312.9
2015-Jul-29 14:33N 37°30' E 000°23'1313.0
2015-Jul-29 13:33N 37°36' E 000°38'1312.7
2015-Jul-29 12:32N 37°43' E 000°52'1612.4
2015-Jul-29 11:16N 37°50' E 001°10'912.2
2015-Jul-29 10:32N 37°54' E 001°20'1412.2
2015-Jul-29 09:23N 38°01' E 001°35'1112.3
2015-Jul-29 08:32N 38°06' E 001°47'1412.3
2015-Jul-29 07:23N 38°12' E 002°03'1312.1
2015-Jul-29 06:19N 38°18' E 002°18'1012.4
2015-Jul-29 05:32N 38°23' E 002°29'1312.1
2015-Jul-29 04:28N 38°28' E 002°43'2412.4
2015-Jul-29 02:31N 38°40' E 003°11'250 6.9
2015-Jul-27 14:29N 38°27' E 008°29'7 7.3
2015-Jul-27 13:30N 38°33' E 008°25'26813.2
2015-Jul-26 17:08N 40°46' E 003°23'1211.8
2015-Jul-26 16:07N 40°52' E 003°08'813.3
2015-Jul-26 15:31N 40°56' E 002°59'2613.0
2015-Jul-26 13:33N 41°08' E 002°29'  
2015-Jul-23 19:26N 41°20' E 002°09'3 0.9
2015-Jul-23 16:33N 41°19' E 002°12'0 0.0
2015-Jul-23 15:15N 41°19' E 002°12'17 2.9
2015-Jul-23 09:21N 41°03' E 002°04'1013.0
2015-Jul-23 08:33N 40°54' E 001°57'1313.0
2015-Jul-23 07:33N 40°43' E 001°48'1414.2
2015-Jul-23 06:33N 40°31' E 001°39'1414.2
2015-Jul-23 05:33N 40°18' E 001°31'1313.3
2015-Jul-23 04:33N 40°06' E 001°23'1313.3
2015-Jul-23 03:33N 39°54' E 001°15'1313.3
2015-Jul-23 02:33N 39°42' E 001°07'2913.1
2015-Jul-23 00:21N 39°16' E 000°53'1012.9
2015-Jul-22 23:33N 39°08' E 000°45'1613.1
2015-Jul-22 22:19N 38°53' E 000°35'1613.6
2015-Jul-22 21:07N 38°39' E 000°25'813.3
2015-Jul-22 20:31N 38°32' E 000°20'1713.2
2015-Jul-22 19:15N 38°18' E 000°08'1113.5
2015-Jul-22 18:26N 38°09' W 000°00'1213.6
2015-Jul-22 17:33N 37°59' W 000°09'1713.6
2015-Jul-22 16:20N 37°45' W 000°21'1013.5
2015-Jul-22 15:33N 37°37' W 000°28'1313.4
2015-Jul-22 14:33N 37°27' W 000°40'1313.2
2015-Jul-22 13:33N 37°18' W 000°52'1413.5
2015-Jul-22 12:33N 37°09' W 001°05'4710.6
2015-Jul-22 08:07N 36°38' W 001°49'812.3
2015-Jul-22 07:30N 36°33' W 001°56'1412.5
2015-Jul-22 06:22N 36°24' W 002°09'1112.5
2015-Jul-22 05:31N 36°21' W 002°22'1312.7
2015-Jul-22 04:31N 36°20' W 002°38'  

Dump ship's entire track history